Time;durP1;ratioP1;P1;durP2;ratioP2;P2;SDS_P1;SDS_P2;PMS_P1;PMS_P2;Temp;Humidity;BMP_temperature;BMP_pressure;BME280_temperature;BME280_humidity;BME280_pressure;Samples;Min_cycle;Max_cycle;Signal;HPM_P1;HPM_P2
2022/09/30 00:05:01;;;;;;;2.25;1.67;;;;;;;9.22;100.00;95054.28;10434746;27;96836;-85
2022/09/30 00:10:06;;;;;;;3.08;1.55;;;;;;;9.18;100.00;95055.59;10435777;27;98420;-85
2022/09/30 00:15:09;;;;;;;3.42;2.17;;;;;;;9.10;100.00;95057.22;10439684;27;99313;-85
2022/09/30 00:20:14;;;;;;;4.72;2.25;;;;;;;9.00;100.00;95061.84;10419958;28;97163;-85
2022/09/30 00:25:17;;;;;;;3.33;2.10;;;;;;;8.90;100.00;95075.03;10425513;27;96778;-85
2022/09/30 00:30:20;;;;;;;2.95;2.25;;;;;;;8.80;100.00;95077.00;10417859;27;96976;-85
2022/09/30 00:35:24;;;;;;;2.90;2.10;;;;;;;8.71;100.00;95073.63;10421009;28;96684;-85
2022/09/30 00:40:29;;;;;;;3.47;2.10;;;;;;;8.66;100.00;95069.88;10422426;27;96661;-85
2022/09/30 00:45:32;;;;;;;3.17;2.00;;;;;;;8.58;100.00;95088.09;10418034;27;97894;-85
2022/09/30 00:50:41;;;;;;;2.78;1.77;;;;;;;8.52;100.00;95094.78;10414338;27;97095;-85
2022/09/30 00:55:50;;;;;;;3.28;1.60;;;;;;;8.47;100.00;95089.25;10420232;27;96761;-85
2022/09/30 01:00:52;;;;;;;4.70;1.60;;;;;;;8.45;100.00;95094.63;10419938;28;96723;-84
2022/09/30 01:05:57;;;;;;;3.50;1.45;;;;;;;8.44;100.00;95097.38;10419130;28;97383;-84
2022/09/30 01:10:59;;;;;;;3.50;1.50;;;;;;;8.37;100.00;95099.00;10425222;27;97188;-85
2022/09/30 01:16:26;;;;;;;2.83;1.52;;;;;;;8.30;100.00;95107.44;10415782;28;98219;-85
2022/09/30 01:21:55;;;;;;;3.38;1.60;;;;;;;8.21;100.00;95108.41;10420077;28;96784;-85
2022/09/30 01:27:30;;;;;;;3.10;1.70;;;;;;;8.09;100.00;95109.72;10424778;27;96771;-84
2022/09/30 01:33:08;;;;;;;5.13;1.73;;;;;;;7.88;100.00;95107.56;10430192;27;98903;-85
2022/09/30 01:38:20;;;;;;;3.63;1.63;;;;;;;7.79;100.00;95114.53;10421831;27;97363;-87
2022/09/30 01:43:33;;;;;;;4.18;1.88;;;;;;;7.80;100.00;95113.53;10410924;27;98823;-85
2022/09/30 01:48:46;;;;;;;6.20;1.85;;;;;;;7.68;100.00;95107.00;10426415;27;97609;-85
2022/09/30 01:53:56;;;;;;;4.28;1.90;;;;;;;7.52;100.00;95115.56;10405078;28;98135;-85
2022/09/30 01:59:04;;;;;;;4.25;1.50;;;;;;;7.42;100.00;95113.06;10413827;27;99414;-85
2022/09/30 02:04:12;;;;;;;1.70;1.30;;;;;;;7.39;100.00;95113.41;10425447;27;96894;-85
2022/09/30 02:09:21;;;;;;;2.70;1.40;;;;;;;7.40;100.00;95115.81;10426386;28;96766;-85
2022/09/30 02:14:29;;;;;;;2.13;1.30;;;;;;;7.36;100.00;95113.69;10419405;28;96703;-85
2022/09/30 02:19:37;;;;;;;3.40;1.60;;;;;;;7.34;100.00;95110.44;10384450;28;96812;-85
2022/09/30 02:24:44;;;;;;;3.15;1.30;;;;;;;7.30;100.00;95122.09;10399143;28;96981;-85
2022/09/30 02:29:53;;;;;;;2.72;1.30;;;;;;;7.25;100.00;95112.19;10424890;28;97371;-85
2022/09/30 02:35:00;;;;;;;3.28;1.63;;;;;;;7.21;100.00;95111.69;10425087;27;96764;-84
2022/09/30 02:40:09;;;;;;;3.20;1.40;;;;;;;7.10;100.00;95118.94;10425532;28;96872;-85
2022/09/30 02:45:15;;;;;;;2.53;1.50;;;;;;;7.00;100.00;95119.84;10410886;28;97142;-85
2022/09/30 02:50:24;;;;;;;3.95;1.55;;;;;;;6.90;100.00;95118.28;10383765;28;97040;-85
2022/09/30 02:55:34;;;;;;;2.33;1.50;;;;;;;6.81;100.00;95115.63;10383376;28;96733;-85
2022/09/30 03:00:38;;;;;;;2.25;1.20;;;;;;;6.72;100.00;95111.34;10399272;28;97472;-85
2022/09/30 03:05:41;;;;;;;2.83;1.48;;;;;;;6.69;100.00;95114.25;10383512;28;97490;-85
2022/09/30 03:10:49;;;;;;;5.13;2.30;;;;;;;6.66;100.00;95122.34;10414306;28;96828;-85
2022/09/30 03:16:06;;;;;;;2.90;1.30;;;;;;;6.66;100.00;95111.97;10414935;28;98808;-85
2022/09/30 03:21:29;;;;;;;2.00;1.50;;;;;;;6.61;100.00;95124.59;10382672;28;97146;-85
2022/09/30 03:26:40;;;;;;;3.85;1.25;;;;;;;6.59;100.00;95121.28;10411618;28;97181;-84
2022/09/30 03:31:52;;;;;;;2.63;1.23;;;;;;;6.47;100.00;95113.75;10397842;28;96756;-85
2022/09/30 03:37:02;;;;;;;5.38;1.30;;;;;;;6.46;100.00;95116.50;10381973;28;97305;-84
2022/09/30 03:42:14;;;;;;;3.58;1.50;;;;;;;6.40;100.00;95138.69;10382137;28;96969;-85
2022/09/30 03:47:26;;;;;;;7.07;1.58;;;;;;;6.40;100.00;95138.69;10394884;27;97116;-85
2022/09/30 03:52:32;;;;;;;2.75;1.20;;;;;;;6.38;100.00;95143.22;10398556;28;97950;-85
2022/09/30 03:57:36;;;;;;;5.15;1.10;;;;;;;6.40;100.00;95146.47;10406181;28;97059;-85
2022/09/30 04:02:39;;;;;;;5.07;1.38;;;;;;;6.34;100.00;95154.81;10387261;27;96987;-85
2022/09/30 04:07:41;;;;;;;2.75;1.10;;;;;;;6.26;100.00;95152.19;10411101;28;98804;-85
2022/09/30 04:12:46;;;;;;;2.83;1.08;;;;;;;6.22;100.00;95156.00;10421497;28;96858;-85
2022/09/30 04:17:49;;;;;;;1.40;1.15;;;;;;;6.19;100.00;95166.66;10422144;27;96783;-85
2022/09/30 04:22:51;;;;;;;3.08;1.30;;;;;;;6.17;100.00;95169.41;10422193;27;97270;-84
2022/09/30 04:27:56;;;;;;;2.75;1.42;;;;;;;6.17;100.00;95171.19;10421612;28;96644;-85
2022/09/30 04:32:59;;;;;;;2.60;1.48;;;;;;;6.21;100.00;95182.94;10421436;28;97044;-85
2022/09/30 04:38:05;;;;;;;3.95;1.40;;;;;;;6.21;100.00;95185.53;10447178;27;97163;-85
2022/09/30 04:43:09;;;;;;;2.47;1.20;;;;;;;6.25;100.00;95189.44;10420618;28;96606;-84
2022/09/30 04:48:12;;;;;;;2.70;1.10;;;;;;;6.22;100.00;95182.75;10420100;27;96815;-85
2022/09/30 04:53:15;;;;;;;2.83;1.13;;;;;;;6.22;100.00;95187.94;10420767;28;96763;-86
2022/09/30 04:58:19;;;;;;;2.85;1.15;;;;;;;6.23;100.00;95193.97;10420603;28;96959;-85
2022/09/30 05:03:22;;;;;;;5.13;1.10;;;;;;;6.22;100.00;95194.91;10419434;28;96858;-86
2022/09/30 05:08:25;;;;;;;1.60;1.00;;;;;;;6.23;100.00;95188.78;10420448;28;96872;-85
2022/09/30 05:13:33;;;;;;;1.92;1.00;;;;;;;6.28;100.00;95202.94;10420657;28;96677;-85
2022/09/30 05:18:37;;;;;;;1.30;0.93;;;;;;;6.29;100.00;95208.91;10412394;28;97156;-85
2022/09/30 05:23:39;;;;;;;2.28;1.05;;;;;;;6.27;100.00;95213.44;10419744;27;97190;-85
2022/09/30 05:28:44;;;;;;;2.20;1.10;;;;;;;6.26;100.00;95225.59;10418964;28;98365;-85
2022/09/30 05:33:46;;;;;;;1.35;0.95;;;;;;;6.19;100.00;95223.72;10413538;27;96861;-85
2022/09/30 05:38:50;;;;;;;1.27;0.88;;;;;;;6.20;100.00;95225.38;10427281;28;96649;-85
2022/09/30 05:43:54;;;;;;;1.08;0.98;;;;;;;6.28;100.00;95228.88;10424779;27;96644;-85
2022/09/30 05:48:57;;;;;;;1.35;0.82;;;;;;;6.33;100.00;95235.38;10385461;28;96788;-85
2022/09/30 05:54:00;;;;;;;1.20;0.93;;;;;;;6.40;100.00;95242.44;10415897;28;98547;-85
2022/09/30 05:59:04;;;;;;;1.92;1.20;;;;;;;6.45;100.00;95234.22;10422069;28;97005;-85
2022/09/30 06:04:07;;;;;;;2.17;1.10;;;;;;;6.54;100.00;95241.13;10414814;28;96672;-85
2022/09/30 06:09:10;;;;;;;4.65;1.13;;;;;;;6.59;100.00;95245.84;10426265;28;97015;-85
2022/09/30 06:14:15;;;;;;;3.15;1.15;;;;;;;6.71;100.00;95252.50;10426256;28;96764;-86
2022/09/30 06:19:18;;;;;;;2.17;1.17;;;;;;;6.77;100.00;95257.06;10418673;28;97012;-86
2022/09/30 06:24:21;;;;;;;3.80;1.17;;;;;;;6.89;100.00;95269.84;10418635;28;98262;-86
2022/09/30 06:29:25;;;;;;;3.33;1.30;;;;;;;7.03;100.00;95269.34;10420348;27;96722;-85
2022/09/30 06:34:28;;;;;;;5.30;2.63;;;;;;;7.06;100.00;95276.00;10420939;28;97959;-86
2022/09/30 06:39:31;;;;;;;3.92;1.35;;;;;;;7.08;100.00;95285.28;10419076;27;96782;-86
2022/09/30 06:44:35;;;;;;;2.70;1.40;;;;;;;7.12;100.00;95294.41;10416302;27;98681;-85
2022/09/30 06:49:57;;;;;;;2.03;1.13;;;;;;;7.28;100.00;95303.28;10416887;28;97499;-86
2022/09/30 06:55:00;;;;;;;2.28;1.10;;;;;;;7.43;100.00;95312.19;10410726;27;97478;-85
2022/09/30 07:00:05;;;;;;;3.63;0.98;;;;;;;7.54;100.00;95314.53;10414699;28;99131;-84
2022/09/30 07:05:09;;;;;;;4.75;1.10;;;;;;;7.71;100.00;95319.84;10378000;28;96666;-85
2022/09/30 07:10:11;;;;;;;4.70;1.25;;;;;;;7.92;100.00;95324.69;10413658;28;97183;-85
2022/09/30 07:15:16;;;;;;;3.30;1.20;;;;;;;8.08;100.00;95317.00;10414832;28;96989;-85
2022/09/30 07:20:19;;;;;;;2.73;1.80;;;;;;;8.24;100.00;95318.84;10415224;27;97104;-85
2022/09/30 07:25:22;;;;;;;4.80;2.10;;;;;;;8.43;100.00;95329.97;10411231;27;99864;-85
2022/09/30 07:30:26;;;;;;;4.57;1.83;;;;;;;8.59;100.00;95335.25;10404411;28;96753;-85
2022/09/30 07:35:29;;;;;;;4.60;2.10;;;;;;;8.73;100.00;95342.44;10376454;28;96697;-85
2022/09/30 07:40:32;;;;;;;4.88;2.60;;;;;;;8.90;100.00;95352.94;10378714;28;96666;-85
2022/09/30 07:45:37;;;;;;;6.15;1.95;;;;;;;9.06;100.00;95349.53;10393779;28;96698;-85
2022/09/30 07:50:44;;;;;;;5.03;2.25;;;;;;;9.25;100.00;95356.25;10418849;28;96938;-85
2022/09/30 07:55:47;;;;;;;4.68;2.00;;;;;;;9.42;100.00;95357.06;10418509;28;96746;-85
2022/09/30 08:00:51;;;;;;;3.75;1.70;;;;;;;9.62;100.00;95366.22;10399719;28;96731;-85
2022/09/30 08:05:54;;;;;;;5.65;2.35;;;;;;;9.78;100.00;95362.78;10376779;28;96631;-85
2022/09/30 08:10:58;;;;;;;3.28;1.65;;;;;;;9.94;100.00;95376.81;10402391;28;97472;-85
2022/09/30 08:16:03;;;;;;;5.07;2.10;;;;;;;10.06;100.00;95380.69;10417955;28;96953;-85
2022/09/30 08:21:07;;;;;;;3.57;1.87;;;;;;;10.19;100.00;95393.25;10417807;28;96737;-85
2022/09/30 08:26:12;;;;;;;2.05;1.58;;;;;;;10.30;100.00;95403.31;10410721;28;96771;-85
2022/09/30 08:31:18;;;;;;;3.33;1.40;;;;;;;10.38;100.00;95413.75;10414369;28;96724;-85
2022/09/30 08:36:23;;;;;;;4.10;1.70;;;;;;;10.45;100.00;95410.50;10416988;28;96876;-85
2022/09/30 08:41:51;;;;;;;4.93;1.67;;;;;;;10.50;100.00;95416.84;10417620;28;97029;-85
2022/09/30 08:47:03;;;;;;;1.60;0.82;;;;;;;10.54;100.00;95428.56;10400203;28;96893;-85
2022/09/30 08:52:12;;;;;;;2.15;1.10;;;;;;;10.58;100.00;95431.66;10417184;28;97216;-85
2022/09/30 08:57:37;;;;;;;4.10;1.20;;;;;;;10.61;100.00;95429.53;10417576;28;97241;-85
2022/09/30 09:02:46;;;;;;;3.10;1.55;;;;;;;10.70;100.00;95439.97;10417428;28;96760;-85
2022/09/30 09:07:59;;;;;;;2.15;1.33;;;;;;;10.82;100.00;95437.81;10416679;28;96816;-85
2022/09/30 09:13:09;;;;;;;3.75;1.30;;;;;;;10.95;100.00;95440.69;10389303;28;96873;-86
2022/09/30 09:18:38;;;;;;;2.42;1.10;;;;;;;11.02;100.00;95444.25;10373202;28;96987;-86
2022/09/30 09:23:41;;;;;;;2.05;1.10;;;;;;;11.13;100.00;95456.13;10374729;28;97414;-85
2022/09/30 09:28:53;;;;;;;2.60;0.90;;;;;;;11.20;100.00;95456.28;10375392;28;96826;-86
2022/09/30 09:34:02;;;;;;;1.60;1.02;;;;;;;11.29;100.00;95466.50;10415877;28;96988;-86
2022/09/30 09:39:21;;;;;;;1.52;0.93;;;;;;;11.38;100.00;95469.13;10415695;28;96836;-86
2022/09/30 09:44:32;;;;;;;1.83;1.00;;;;;;;11.51;100.00;95474.59;10405725;28;97113;-86
2022/09/30 09:49:37;;;;;;;2.45;0.80;;;;;;;11.63;100.00;95475.03;10386201;28;96805;-85
2022/09/30 09:54:45;;;;;;;1.02;0.80;;;;;;;11.65;100.00;95484.31;10414821;27;97071;-85
2022/09/30 09:59:57;;;;;;;5.38;1.17;;;;;;;11.68;100.00;95489.22;10398725;28;96914;-85
2022/09/30 10:05:02;;;;;;;2.70;0.98;;;;;;;11.74;100.00;95501.63;10408831;28;97297;-85
2022/09/30 10:10:09;;;;;;;1.90;1.13;;;;;;;11.83;100.00;95493.69;10410463;28;96787;-85
2022/09/30 10:15:20;;;;;;;2.53;1.10;;;;;;;11.95;100.00;95494.13;10413958;27;97747;-85
2022/09/30 10:20:29;;;;;;;1.45;0.95;;;;;;;12.13;100.00;95492.03;10410222;27;98289;-86
2022/09/30 10:25:32;;;;;;;1.70;1.00;;;;;;;12.25;100.00;95502.91;10421337;28;97064;-86
2022/09/30 10:30:43;;;;;;;2.47;1.00;;;;;;;12.31;100.00;95502.19;10404619;28;96751;-86
2022/09/30 10:36:03;;;;;;;2.15;1.00;;;;;;;12.46;100.00;95504.84;10380302;28;96860;-86
2022/09/30 10:41:06;;;;;;;1.40;1.20;;;;;;;12.54;100.00;95509.19;10415521;28;98922;-86
2022/09/30 10:46:09;;;;;;;1.17;1.00;;;;;;;12.59;100.00;95509.47;10417305;28;96844;-86
2022/09/30 10:51:35;;;;;;;2.47;1.23;;;;;;;12.43;100.00;95511.25;10420815;28;97185;-86
2022/09/30 10:56:41;;;;;;;1.63;1.13;;;;;;;12.40;100.00;95516.03;10420691;27;97037;-85
2022/09/30 11:01:48;;;;;;;2.25;1.20;;;;;;;12.35;100.00;95519.16;10393110;28;98934;-85
2022/09/30 11:07:10;;;;;;;2.00;1.20;;;;;;;12.37;100.00;95527.69;10397658;28;96998;-85
2022/09/30 11:12:19;;;;;;;3.47;1.55;;;;;;;12.38;100.00;95531.91;10409930;28;97136;-86
2022/09/30 11:17:32;;;;;;;2.42;1.60;;;;;;;12.50;100.00;95533.13;10378541;28;96633;-85
2022/09/30 11:22:45;;;;;;;2.00;1.50;;;;;;;12.60;100.00;95526.84;10378299;28;97046;-85
2022/09/30 11:28:11;;;;;;;1.77;1.40;;;;;;;12.75;100.00;95530.31;10377366;28;96789;-84
2022/09/30 11:33:35;;;;;;;2.08;1.20;;;;;;;12.92;100.00;95541.44;10377342;28;96784;-85
2022/09/30 11:38:58;;;;;;;2.65;1.90;;;;;;;12.97;100.00;95533.06;10378393;28;96837;-85
2022/09/30 11:44:14;;;;;;;2.78;1.95;;;;;;;13.12;100.00;95536.50;10379323;27;97358;-85
2022/09/30 11:49:37;;;;;;;2.53;1.88;;;;;;;13.28;100.00;95539.94;10414973;28;96855;-85
2022/09/30 11:54:59;;;;;;;2.03;1.70;;;;;;;13.44;100.00;95537.09;10417946;28;97246;-85
2022/09/30 12:00:06;;;;;;;2.10;1.60;;;;;;;13.52;100.00;95537.03;10417347;28;97147;-85
2022/09/30 12:05:14;;;;;;;3.05;1.70;;;;;;;13.60;100.00;95544.78;10418940;28;96678;-85
2022/09/30 12:10:23;;;;;;;1.70;1.40;;;;;;;13.51;100.00;95540.63;10414100;27;97328;-85
2022/09/30 12:15:27;;;;;;;3.78;1.70;;;;;;;13.49;100.00;95542.63;10418195;28;96800;-86
2022/09/30 12:20:34;;;;;;;1.53;1.20;;;;;;;13.43;100.00;95538.94;10416849;28;97469;-85
2022/09/30 12:25:42;;;;;;;1.25;1.08;;;;;;;13.38;100.00;95540.47;10418077;28;96746;-85
2022/09/30 12:30:46;;;;;;;1.77;1.33;;;;;;;13.20;100.00;95543.44;10401154;28;96752;-85
2022/09/30 12:36:26;;;;;;;1.75;1.17;;;;;;;13.17;100.00;95547.25;10375797;28;96924;-85
2022/09/30 12:41:48;;;;;;;1.48;1.17;;;;;;;13.20;100.00;95546.91;10375034;28;96621;-85
2022/09/30 12:47:12;;;;;;;2.05;1.35;;;;;;;13.25;100.00;95541.09;10405132;27;97636;-85
2022/09/30 12:52:20;;;;;;;2.50;0.90;;;;;;;13.33;100.00;95543.63;10415779;28;96802;-85
2022/09/30 12:57:28;;;;;;;1.25;0.90;;;;;;;13.47;100.00;95544.63;10416552;28;97657;-86
2022/09/30 13:02:35;;;;;;;1.25;1.00;;;;;;;13.46;100.00;95537.72;10381398;28;96748;-86
2022/09/30 13:08:10;;;;;;;1.35;0.90;;;;;;;13.54;100.00;95540.25;10374069;28;96814;-85
2022/09/30 13:13:23;;;;;;;2.60;0.90;;;;;;;13.69;100.00;95542.03;10415353;28;96767;-85
2022/09/30 13:18:59;;;;;;;1.48;0.80;;;;;;;13.82;100.00;95542.19;10376362;28;98558;-85
2022/09/30 13:24:04;;;;;;;2.38;0.98;;;;;;;13.83;100.00;95554.34;10375345;28;96829;-85
2022/09/30 13:29:25;;;;;;;;;;;;;;;13.69;100.00;95552.53;10387519;28;97022;-86
2022/09/30 13:34:31;;;;;;;0.95;0.80;;;;;;;13.72;100.00;95549.56;10415878;28;97638;-86
2022/09/30 13:39:46;;;;;;;1.27;0.60;;;;;;;13.94;100.00;95540.72;10393352;28;97337;-85
2022/09/30 13:45:00;;;;;;;1.05;0.60;;;;;;;14.17;100.00;95539.75;10374008;28;97118;-85
2022/09/30 13:50:14;;;;;;;0.95;0.70;;;;;;;14.39;100.00;95547.66;10374346;28;97003;-85
2022/09/30 13:55:21;;;;;;;1.57;0.60;;;;;;;14.48;100.00;95539.44;10375084;28;96956;-85
2022/09/30 14:00:26;;;;;;;1.90;0.90;;;;;;;14.58;100.00;95547.03;10395159;28;97067;-85
2022/09/30 14:05:56;;;;;;;1.40;0.70;;;;;;;14.68;100.00;95552.75;10423280;28;97066;-85
2022/09/30 14:11:11;;;;;;;1.45;0.70;;;;;;;14.80;100.00;95554.88;10411753;27;97094;-85
2022/09/30 14:16:38;;;;;;;1.08;0.70;;;;;;;14.90;100.00;95560.59;10406357;27;97638;-86
2022/09/30 14:21:47;;;;;;;0.80;0.50;;;;;;;15.11;100.00;95578.16;10421339;28;96927;-85
2022/09/30 14:27:32;;;;;;;1.17;0.70;;;;;;;14.91;100.00;95578.03;10421131;28;96638;-85
2022/09/30 14:32:43;;;;;;;0.73;0.70;;;;;;;14.73;100.00;95576.69;10368613;28;97136;-85
2022/09/30 14:37:51;;;;;;;2.03;1.13;;;;;;;14.66;100.00;95586.31;10333911;28;101813;-85
2022/09/30 14:42:58;;;;;;;2.47;0.73;;;;;;;14.62;100.00;95595.56;10333549;28;97226;-86
2022/09/30 14:48:05;;;;;;;2.97;0.90;;;;;;;14.52;100.00;95592.44;10365038;28;97023;-85
2022/09/30 14:53:24;;;;;;;0.80;0.57;;;;;;;14.52;100.00;95593.28;10374261;28;97209;-86
2022/09/30 14:58:29;;;;;;;1.05;0.70;;;;;;;14.50;100.00;95591.81;10374618;27;97000;-85
2022/09/30 15:03:35;;;;;;;1.10;0.70;;;;;;;14.43;100.00;95601.47;10354541;28;96963;-85
2022/09/30 15:08:40;;;;;;;1.02;0.82;;;;;;;14.42;100.00;95607.72;10411901;27;96860;-86
2022/09/30 15:13:43;;;;;;;1.47;0.90;;;;;;;14.51;100.00;95598.72;10418285;28;97522;-86
2022/09/30 15:18:46;;;;;;;3.75;0.90;;;;;;;14.73;100.00;95602.13;10416182;27;96872;-86
2022/09/30 15:23:53;;;;;;;1.17;0.80;;;;;;;14.71;100.00;95609.41;10405364;27;96722;-86
2022/09/30 15:28:56;;;;;;;1.17;0.90;;;;;;;14.53;100.00;95617.75;10434379;27;98080;-86
2022/09/30 15:34:07;;;;;;;1.08;0.68;;;;;;;14.50;100.00;95612.84;10439369;27;96820;-86
2022/09/30 15:40:44;;;;;;;0.98;0.70;;;;;;;14.29;100.00;95617.06;10433909;27;97613;-85
2022/09/30 15:44:52;;;;;;;1.40;0.73;;;;;;;14.22;100.00;95625.88;10432259;27;96775;-85
2022/09/30 15:49:55;;;;;;;1.45;1.10;;;;;;;14.19;100.00;95606.88;10431069;27;99534;-85
2022/09/30 15:54:59;;;;;;;1.88;1.00;;;;;;;14.12;100.00;95620.91;10381654;27;97842;-85
2022/09/30 16:00:06;;;;;;;1.30;0.77;;;;;;;13.96;100.00;95614.06;10400684;28;98501;-84
2022/09/30 16:05:09;;;;;;;3.40;0.93;;;;;;;13.84;100.00;95639.97;10415375;27;96860;-85
2022/09/30 16:10:20;;;;;;;3.05;2.13;;;;;;;13.71;100.00;95645.06;10418513;28;97300;-86
2022/09/30 16:15:24;;;;;;;2.33;1.40;;;;;;;13.55;100.00;95660.00;10414069;28;96802;-84
2022/09/30 16:20:26;;;;;;;3.35;2.00;;;;;;;13.51;100.00;95665.78;10405764;27;97153;-85
2022/09/30 16:25:32;;;;;;;5.00;3.33;;;;;;;13.52;100.00;95668.22;10417564;27;96807;-85
2022/09/30 16:30:37;;;;;;;3.17;2.38;;;;;;;13.44;100.00;95670.91;10415791;28;97469;-86
2022/09/30 16:35:42;;;;;;;8.27;5.35;;;;;;;13.40;100.00;95674.91;10417227;28;97673;-85
2022/09/30 16:40:47;;;;;;;4.40;2.85;;;;;;;13.36;100.00;95679.69;10417081;28;96840;-85
2022/09/30 16:45:50;;;;;;;5.47;3.70;;;;;;;13.35;100.00;95682.50;10412519;27;96812;-85
2022/09/30 16:51:01;;;;;;;3.45;2.00;;;;;;;13.28;100.00;95687.63;10408951;27;97488;-84
2022/09/30 16:56:05;;;;;;;3.47;2.25;;;;;;;13.21;100.00;95698.03;10409891;28;96846;-85
2022/09/30 17:01:18;;;;;;;2.90;2.03;;;;;;;13.15;100.00;95697.91;10408485;27;97550;-85
2022/09/30 17:06:28;;;;;;;3.17;2.50;;;;;;;13.13;100.00;95705.94;10406214;27;96920;-85
2022/09/30 17:11:36;;;;;;;1.90;1.52;;;;;;;13.02;100.00;95711.63;10407871;28;96767;-86
2022/09/30 17:16:40;;;;;;;3.38;2.88;;;;;;;12.89;100.00;95709.56;10412993;27;96908;-86
2022/09/30 17:21:43;;;;;;;5.43;2.00;;;;;;;12.82;100.00;95714.69;10410789;28;96981;-84
2022/09/30 17:26:48;;;;;;;5.03;2.65;;;;;;;12.83;100.00;95720.75;10415283;27;96968;-87
2022/09/30 17:31:52;;;;;;;3.35;2.60;;;;;;;12.77;100.00;95727.50;10410007;28;98087;-86
2022/09/30 17:36:56;;;;;;;7.27;6.43;;;;;;;12.79;100.00;95733.38;10413520;28;96956;-87
2022/09/30 17:47:22;;;;;;;4.43;2.00;;;;;;;12.69;100.00;95740.66;10408271;27;99089;-87
2022/09/30 17:52:26;;;;;;;4.20;2.55;;;;;;;12.68;100.00;95747.69;10415126;27;97136;-86
2022/09/30 17:57:38;;;;;;;3.80;1.65;;;;;;;12.61;100.00;95754.63;10409024;27;96849;-86
2022/09/30 18:02:53;;;;;;;3.75;2.80;;;;;;;12.53;100.00;95772.16;10395436;28;97292;-87
2022/09/30 18:07:57;;;;;;;16.45;9.77;;;;;;;12.53;100.00;95790.50;10405377;27;96883;-86
2022/09/30 18:13:01;;;;;;;18.00;9.77;;;;;;;12.50;100.00;95797.72;10409990;28;97368;-86
2022/09/30 18:18:05;;;;;;;12.00;6.97;;;;;;;12.40;100.00;95798.91;10409798;27;96809;-85
2022/09/30 18:23:08;;;;;;;10.88;7.30;;;;;;;12.39;100.00;95818.25;10404353;27;99001;-85
2022/09/30 18:28:12;;;;;;;13.85;9.65;;;;;;;12.41;100.00;95822.34;10393873;27;97043;-85
2022/09/30 18:33:16;;;;;;;16.75;9.80;;;;;;;12.43;100.00;95820.34;10396131;28;97260;-85
2022/09/30 18:38:19;;;;;;;11.48;7.80;;;;;;;12.48;100.00;95823.28;10409060;28;96983;-87
2022/09/30 18:43:23;;;;;;;12.15;8.25;;;;;;;12.49;100.00;95830.16;10397229;28;97445;-86
2022/09/30 18:48:26;;;;;;;11.43;7.80;;;;;;;12.50;100.00;95828.34;10414022;28;97100;-86
2022/09/30 18:53:30;;;;;;;11.95;8.57;;;;;;;12.48;100.00;95839.00;10417308;28;96910;-86
2022/09/30 18:58:38;;;;;;;6.88;4.95;;;;;;;12.34;100.00;95837.09;10416101;28;96797;-86
2022/09/30 19:03:41;;;;;;;5.00;3.63;;;;;;;12.29;100.00;95840.22;10412557;28;97775;-87
2022/09/30 19:08:43;;;;;;;5.35;3.92;;;;;;;12.21;100.00;95836.78;10413759;27;96923;-84
2022/09/30 19:13:55;;;;;;;8.73;4.32;;;;;;;12.15;100.00;95845.34;10418645;28;96774;-86
2022/09/30 19:19:03;;;;;;;7.93;5.30;;;;;;;12.09;100.00;95849.41;10418262;28;97431;-88
2022/09/30 19:24:07;;;;;;;12.30;8.85;;;;;;;12.05;100.00;95859.41;10416468;28;97560;-85
2022/09/30 19:29:12;;;;;;;10.48;8.77;;;;;;;11.95;100.00;95853.53;10393193;28;97029;-87
2022/09/30 19:34:16;;;;;;;12.63;8.27;;;;;;;11.78;100.00;95867.59;10409638;28;96950;-86
2022/09/30 19:39:35;;;;;;;8.85;6.72;;;;;;;11.62;100.00;95858.78;10408688;27;96803;-86
2022/09/30 19:44:50;;;;;;;11.55;6.65;;;;;;;11.57;100.00;95861.06;10400348;28;96886;-86
2022/09/30 19:49:54;;;;;;;9.18;5.93;;;;;;;11.50;100.00;95870.56;10395509;28;97020;-86
2022/09/30 19:54:56;;;;;;;9.48;6.72;;;;;;;11.30;100.00;95865.59;10412754;28;96789;-86
2022/09/30 20:00:16;;;;;;;6.32;4.00;;;;;;;11.24;100.00;95875.88;10389815;28;97028;-88
2022/09/30 20:05:19;;;;;;;10.15;6.65;;;;;;;11.22;100.00;95877.84;10401857;28;97167;-85
2022/09/30 20:10:22;;;;;;;13.15;8.07;;;;;;;11.17;100.00;95899.22;10417326;27;96845;-85
2022/09/30 20:20:48;;;;;;;10.48;6.50;;;;;;;10.92;100.00;95898.34;10408750;28;96816;-85
2022/09/30 20:25:51;;;;;;;11.18;5.57;;;;;;;10.89;100.00;95899.47;10412172;28;96981;-85
2022/09/30 20:30:56;;;;;;;7.68;4.40;;;;;;;10.87;100.00;95909.28;10415899;27;96794;-86
2022/09/30 20:35:59;;;;;;;7.67;4.90;;;;;;;10.74;100.00;95911.53;10417681;27;96739;-85
2022/09/30 20:41:03;;;;;;;9.82;5.53;;;;;;;10.51;100.00;95921.66;10383944;28;96980;-85
2022/09/30 20:46:07;;;;;;;12.27;5.63;;;;;;;10.36;100.00;95919.66;10394700;28;96738;-85
2022/09/30 20:51:14;;;;;;;9.73;5.40;;;;;;;10.27;100.00;95935.41;10416916;27;96665;-86
2022/09/30 20:56:18;;;;;;;5.90;3.25;;;;;;;10.21;100.00;95932.44;10416525;28;96770;-86
2022/09/30 21:01:23;;;;;;;11.57;5.25;;;;;;;10.21;100.00;95932.44;10394709;28;96786;-86
2022/09/30 21:06:27;;;;;;;;;;;;;;;10.07;100.00;95948.66;10376829;28;97015;-86
2022/09/30 21:11:29;;;;;;;10.90;7.55;;;;;;;9.92;100.00;95948.34;10400671;28;96740;-86
2022/09/30 21:16:34;;;;;;;6.38;4.85;;;;;;;9.86;100.00;95938.53;10392026;28;97556;-86
2022/09/30 21:21:37;;;;;;;8.70;4.83;;;;;;;9.85;100.00;95942.94;10373300;28;96938;-85
2022/09/30 21:26:40;;;;;;;8.65;5.60;;;;;;;9.81;100.00;95956.44;10374730;28;96815;-86
2022/09/30 21:31:44;;;;;;;8.57;6.13;;;;;;;9.69;100.00;95973.28;10399322;28;96840;-86
2022/09/30 21:36:48;;;;;;;10.13;5.57;;;;;;;9.44;100.00;95994.72;10415658;28;96884;-86
2022/09/30 21:41:50;;;;;;;5.45;4.72;;;;;;;9.43;100.00;96011.31;10415916;28;96620;-86
2022/09/30 21:46:55;;;;;;;8.90;6.28;;;;;;;9.45;100.00;96014.63;10388586;28;96947;-86
2022/09/30 21:51:57;;;;;;;7.90;5.70;;;;;;;9.48;100.00;96026.53;10372838;28;96784;-86
2022/09/30 21:57:00;;;;;;;7.03;5.47;;;;;;;9.59;100.00;96025.50;10411860;28;96888;-86
2022/09/30 22:02:05;;;;;;;9.73;5.60;;;;;;;9.61;100.00;96039.19;10388675;28;96798;-86
2022/09/30 22:07:08;;;;;;;7.13;5.32;;;;;;;9.70;100.00;96038.34;10413543;28;97123;-86
2022/09/30 22:12:11;;;;;;;6.47;5.10;;;;;;;9.74;100.00;96034.47;10414043;28;96817;-85
2022/09/30 22:17:15;;;;;;;8.05;5.03;;;;;;;9.75;100.00;96030.91;10388047;28;96818;-86
2022/09/30 22:22:18;;;;;;;6.47;4.67;;;;;;;9.72;100.00;96018.13;10379414;28;97558;-85
2022/09/30 22:27:21;;;;;;;9.57;5.22;;;;;;;9.61;100.00;96015.72;10379543;28;96786;-86
2022/09/30 22:32:25;;;;;;;8.20;5.13;;;;;;;9.43;100.00;96021.72;10379011;28;96851;-85
2022/09/30 22:43:03;;;;;;;6.75;5.35;;;;;;;9.27;100.00;96013.72;10379386;28;96815;-85
2022/09/30 22:48:07;;;;;;;7.82;5.35;;;;;;;9.26;100.00;96025.09;10379590;28;97603;-85
2022/09/30 22:53:10;;;;;;;7.72;5.20;;;;;;;9.22;100.00;96018.53;10379542;28;96658;-86
2022/09/30 22:58:14;;;;;;;8.07;4.72;;;;;;;9.20;100.00;96016.06;10379384;28;96865;-85
2022/09/30 23:03:18;;;;;;;7.00;4.43;;;;;;;9.13;100.00;96014.19;10377387;28;96835;-85
2022/09/30 23:08:21;;;;;;;8.18;5.32;;;;;;;9.00;100.00;96020.56;10378615;28;96868;-85
2022/09/30 23:13:24;;;;;;;7.50;4.18;;;;;;;8.85;100.00;96022.00;10378976;28;96989;-85
2022/09/30 23:18:32;;;;;;;7.82;4.82;;;;;;;8.72;100.00;96023.13;10377646;28;97130;-85
2022/09/30 23:23:36;;;;;;;6.53;4.70;;;;;;;8.62;100.00;96044.91;10378488;28;96722;-85
2022/09/30 23:28:40;;;;;;;7.38;4.90;;;;;;;8.39;100.00;96047.03;10377370;28;96851;-85
2022/09/30 23:33:46;;;;;;;7.78;4.78;;;;;;;8.37;100.00;96054.16;10419550;28;96839;-85
2022/09/30 23:38:49;;;;;;;9.48;4.95;;;;;;;8.32;100.00;96060.56;10420585;28;96681;-85
2022/09/30 23:43:52;;;;;;;6.88;3.80;;;;;;;8.31;100.00;96066.75;10417651;28;96776;-85
2022/09/30 23:48:56;;;;;;;7.03;3.88;;;;;;;8.28;100.00;96080.03;10377061;28;96903;-85
2022/09/30 23:54:01;;;;;;;6.57;4.32;;;;;;;8.23;100.00;96076.22;10376464;28;96815;-85
2022/09/30 23:59:03;;;;;;;7.43;3.87;;;;;;;8.15;100.00;96067.31;10379755;28;96859;-85
